Cleveland Hopkins International Airport
KCLE : now visible

Airfield :











YOU CAN JOIN US ON...

 
LOGIN :

Register | Disclaimer

   EN    FR    IT 

 









Legend :    VFR   Marginal VFR   IFR   Intensive IFR   Very Intensive IFR
Visi :
Ceiling :
>= 8 km
>= 3000ft
5 to 8 km
1000 to 3000 ft
1500m to 5 km
500 to 1000 ft
800 to 1500m
200 to 500 ft
< 800m
< 200 ft
Symbols :   Thunderstorms  Fog  Heavy snow  Heavy precipitations  Wind > 20 kt







- Airport Elevation : 791 ft
- IATA code : CLE


KCLE - Cleveland Hopkins International

CURRENT METAR :
  • 162151Z 01009KT 10SM FEW040 24/18 A3009 RMK AO2 SLP183 T02440183 $

EXPIRED METARs :
  • 162051Z 36008KT 10SM FEW050 26/19 A3008 RMK AO2 SLP180 T02560189 56003 $
  • 161951Z 36012KT 10SM FEW050 26/19 A3008 RMK AO2 SLP181 T02610194
  • 161851Z 36006KT 10SM FEW050 27/17 A3008 RMK AO2 SLP179 T02720172

TAF KCLE
Valid from the 16 at 18:00 until the 18 at 00:00 UTC


161720Z 1618/1724 01008KT P6SM SCT030 SCT090
FM170100 05006KT P6SM SCT010 BKN030
FM171300 05010KT P6SM FEW010 SCT030
No reported NOTAMs for that airfield.



MET'MAP, your aeronautical weather chart ! - Copyright ORBIFLY December 2007 - Disclaimer

ORBIFLY MET'MAP TEAM :

Programming & Development : Alexandra Zaïnal
Concept & Development : Baudouin d'Aumeries
Co-Development & Prog : Marc-Olivier Méhu
Technical & hardware support : Manuel Goepfert

Contact : metmap@orbifly.com




SOURCES & CREDITS :

   NOAA       Earth
Advisory